createdAt,value
2019-04-07T00:01:19.393Z,82.49
2019-04-07T00:01:58.355Z,83.16
2019-04-07T00:02:58.357Z,83.16
2019-04-07T00:03:58.600Z,83.54
2019-04-07T00:05:09.335Z,83.16
2019-04-07T00:05:58.600Z,83.64
2019-04-07T00:07:19.599Z,83.83
2019-04-07T00:07:59.069Z,83.16
2019-04-07T00:08:58.430Z,82.97
2019-04-07T00:09:58.548Z,82.97
2019-04-07T00:10:58.933Z,82.68
2019-04-07T00:11:59.075Z,82.59
2019-04-07T00:13:19.528Z,82.20
2019-04-07T00:13:58.924Z,82.68
2019-04-07T00:14:58.512Z,83.16
2019-04-07T00:15:58.974Z,83.35
2019-04-07T00:16:58.566Z,83.25
2019-04-07T00:17:59.209Z,83.73
2019-04-07T00:19:19.584Z,83.35
2019-04-07T00:19:58.666Z,84.01
2019-04-07T00:20:58.630Z,83.73
2019-04-07T00:21:59.271Z,83.78
2019-04-07T00:22:58.614Z,83.97
2019-04-07T00:23:58.646Z,84.55
2019-04-07T00:25:19.696Z,85.69
2019-04-07T00:25:58.917Z,86.16
2019-04-07T00:26:58.688Z,85.88
2019-04-07T00:27:58.726Z,86.26
2019-04-07T00:28:58.756Z,86.36
2019-04-07T00:29:59.911Z,86.36
2019-04-07T00:31:20.468Z,86.36
2019-04-07T00:31:58.786Z,85.88
2019-04-07T00:32:58.784Z,86.16
2019-04-07T00:33:59.301Z,86.07
2019-04-07T00:34:58.812Z,85.50
2019-04-07T00:35:59.263Z,85.31
2019-04-07T00:37:19.850Z,85.41
2019-04-07T00:37:59.447Z,84.83
2019-04-07T00:38:59.393Z,84.45
2019-04-07T00:39:58.978Z,84.59
2019-04-07T00:40:59.239Z,84.40
2019-04-07T00:41:59.212Z,83.97
2019-04-07T00:43:19.990Z,84.01
2019-04-07T00:43:59.446Z,84.11
2019-04-07T00:44:59.657Z,84.26
2019-04-07T00:45:58.965Z,84.49
2019-04-07T00:46:59.018Z,83.83
2019-04-07T00:47:59.362Z,83.73
2019-04-07T00:49:20.543Z,84.01
2019-04-07T00:49:59.023Z,83.92
2019-04-07T00:50:59.252Z,83.92
2019-04-07T00:51:59.595Z,83.92
2019-04-07T00:52:59.103Z,84.01
2019-04-07T00:53:59.621Z,84.01
2019-04-07T00:55:20.112Z,84.01
2019-04-07T00:55:59.433Z,83.54
2019-04-07T00:56:59.417Z,84.01
2019-04-07T00:57:59.462Z,83.69
2019-04-07T00:58:59.142Z,84.16
2019-04-07T00:59:59.460Z,84.16
2019-04-07T01:01:20.681Z,83.97
2019-04-07T01:01:59.230Z,84.92
2019-04-07T01:02:59.434Z,85.21
2019-04-07T01:03:59.783Z,85.31
2019-04-07T01:04:59.265Z,85.88
2019-04-07T01:05:59.236Z,85.41
2019-04-07T01:07:20.313Z,86.88
2019-04-07T01:07:59.280Z,87.36
2019-04-07T01:08:59.318Z,87.27
2019-04-07T01:09:59.587Z,87.17
2019-04-07T01:10:59.327Z,86.88
2019-04-07T01:11:59.551Z,86.88
2019-04-07T01:13:20.823Z,86.51
2019-04-07T01:13:59.356Z,87.27
2019-04-07T01:14:59.624Z,87.07
2019-04-07T01:15:59.394Z,87.17
2019-04-07T01:16:59.450Z,86.79
2019-04-07T01:17:59.928Z,86.88
2019-04-07T01:19:21.088Z,86.74
2019-04-07T01:19:59.769Z,86.74
2019-04-07T01:20:59.523Z,86.16
2019-04-07T01:21:59.898Z,86.45
2019-04-07T01:22:59.498Z,86.16
2019-04-07T01:23:59.536Z,86.07
2019-04-07T01:25:20.546Z,85.88
2019-04-07T01:25:59.532Z,85.88
2019-04-07T01:27:00.183Z,86.07
2019-04-07T01:27:59.581Z,85.97
2019-04-07T01:29:00.195Z,85.78
2019-04-07T01:29:59.605Z,85.31
2019-04-07T01:31:20.943Z,85.97
2019-04-07T01:31:59.621Z,86.26
2019-04-07T01:33:00.030Z,86.16
2019-04-07T01:33:59.636Z,86.65
2019-04-07T01:34:59.751Z,86.79
2019-04-07T01:35:59.846Z,87.17
2019-04-07T01:37:20.963Z,86.98
2019-04-07T01:37:59.944Z,87.36
2019-04-07T01:38:59.977Z,87.46
2019-04-07T01:40:00.130Z,86.98
2019-04-07T01:40:59.913Z,87.31
2019-04-07T01:41:59.774Z,87.31
2019-04-07T01:43:20.798Z,86.83
2019-04-07T01:44:00.156Z,87.02
2019-04-07T01:44:59.976Z,87.46
2019-04-07T01:45:59.914Z,87.55
2019-04-07T01:46:59.833Z,88.03
2019-04-07T01:47:59.832Z,88.12
2019-04-07T01:49:21.033Z,88.31
2019-04-07T01:50:00.462Z,87.84
2019-04-07T01:50:59.881Z,87.65
2019-04-07T01:51:59.926Z,87.55
2019-04-07T01:52:59.904Z,87.27
2019-04-07T01:53:59.950Z,87.27
2019-04-07T01:55:20.948Z,87.46
2019-04-07T01:56:00.266Z,87.07
2019-04-07T01:57:00.235Z,88.03
2019-04-07T01:57:59.979Z,87.65
2019-04-07T01:59:00.004Z,88.41
2019-04-07T02:00:00.705Z,88.12
2019-04-07T02:01:21.035Z,87.84
2019-04-07T02:02:00.471Z,88.22
2019-04-07T02:03:00.044Z,88.03
2019-04-07T02:04:00.074Z,88.31
2019-04-07T02:05:00.152Z,88.12
2019-04-07T02:06:02.790Z,88.31
2019-04-07T02:07:22.146Z,88.12
2019-04-07T02:08:00.141Z,87.93
2019-04-07T02:09:00.796Z,88.41
2019-04-07T02:10:00.138Z,87.55
2019-04-07T02:11:00.150Z,88.12
2019-04-07T02:12:00.592Z,88.41
2019-04-07T02:13:21.461Z,87.65
2019-04-07T02:14:00.469Z,87.55
2019-04-07T02:15:00.951Z,87.46
2019-04-07T02:16:00.276Z,88.12
2019-04-07T02:17:00.928Z,88.12
2019-04-07T02:18:00.871Z,88.70
2019-04-07T02:19:21.624Z,88.51
2019-04-07T02:20:00.333Z,89.36
2019-04-07T02:21:00.301Z,89.03
2019-04-07T02:22:00.390Z,88.84
2019-04-07T02:23:00.826Z,89.03
2019-04-07T02:24:00.320Z,89.03
2019-04-07T02:25:21.906Z,89.32
2019-04-07T02:26:00.879Z,89.03
2019-04-07T02:27:00.885Z,88.89
2019-04-07T02:28:01.066Z,89.03
2019-04-07T02:29:00.409Z,88.70
2019-04-07T02:30:00.509Z,88.31
2019-04-07T02:31:22.459Z,88.60
2019-04-07T02:32:01.180Z,88.03
2019-04-07T02:33:00.520Z,87.84
2019-04-07T02:34:00.490Z,88.03
2019-04-07T02:35:01.383Z,88.12
2019-04-07T02:36:13.588Z,88.12
2019-04-07T02:37:22.549Z,88.12
2019-04-07T02:38:00.645Z,87.93
2019-04-07T02:39:00.546Z,88.31
2019-04-07T02:40:00.703Z,88.70
2019-04-07T02:41:00.565Z,88.22
2019-04-07T02:42:00.625Z,88.03
2019-04-07T02:43:21.609Z,88.12
2019-04-07T02:44:01.499Z,88.31
2019-04-07T02:45:01.394Z,88.12
2019-04-07T02:46:00.719Z,88.31
2019-04-07T02:47:00.873Z,88.12
2019-04-07T02:48:01.197Z,88.60
2019-04-07T02:49:21.721Z,89.13
2019-04-07T02:50:01.610Z,89.13
2019-04-07T02:51:01.269Z,88.60
2019-04-07T02:52:00.744Z,88.98
2019-04-07T02:53:01.521Z,89.46
2019-04-07T02:54:00.834Z,88.70
2019-04-07T02:55:21.940Z,88.18
2019-04-07T02:56:01.869Z,88.60
2019-04-07T02:57:00.806Z,88.51
2019-04-07T02:58:01.547Z,88.31
2019-04-07T02:59:01.332Z,88.70
2019-04-07T03:00:01.135Z,88.22
2019-04-07T03:01:22.084Z,88.70
2019-04-07T03:02:00.860Z,87.84
2019-04-07T03:03:01.635Z,88.31
2019-04-07T03:04:01.801Z,88.12
2019-04-07T03:05:02.033Z,88.31
2019-04-07T03:06:01.823Z,89.07
2019-04-07T03:07:21.940Z,88.70
2019-04-07T03:08:01.591Z,88.98
2019-04-07T03:09:00.952Z,88.98
2019-04-07T03:10:00.979Z,89.17
2019-04-07T03:11:01.911Z,88.79
2019-04-07T03:12:01.694Z,88.41
2019-04-07T03:13:22.768Z,88.70
2019-04-07T03:14:01.040Z,88.12
2019-04-07T03:15:01.083Z,88.41
2019-04-07T03:16:01.955Z,88.08
2019-04-07T03:17:02.198Z,89.03
2019-04-07T03:18:01.102Z,88.75
2019-04-07T03:19:22.193Z,88.70
2019-04-07T03:20:01.101Z,88.51
2019-04-07T03:21:01.234Z,88.98
2019-04-07T03:22:01.190Z,89.26
2019-04-07T03:23:01.928Z,88.12
2019-04-07T03:24:01.183Z,88.70
2019-04-07T03:25:22.185Z,88.79
2019-04-07T03:26:02.211Z,88.79
2019-04-07T03:27:01.235Z,88.70
2019-04-07T03:28:01.232Z,88.60
2019-04-07T03:29:01.410Z,88.70
2019-04-07T03:30:01.529Z,88.51
2019-04-07T03:31:23.906Z,88.79
2019-04-07T03:32:02.757Z,89.17
2019-04-07T03:33:05.200Z,89.26
2019-04-07T03:34:03.784Z,89.17
2019-04-07T03:35:03.160Z,88.51
2019-04-07T03:36:03.331Z,88.79
2019-04-07T03:37:34.457Z,89.46
2019-04-07T03:38:02.028Z,88.70
2019-04-07T03:39:01.974Z,89.07
2019-04-07T03:40:02.579Z,89.07
2019-04-07T03:41:01.448Z,89.07
2019-04-07T03:42:01.431Z,88.41
2019-04-07T03:43:22.445Z,88.79
2019-04-07T03:44:01.464Z,88.22
2019-04-07T03:45:01.455Z,87.93
2019-04-07T03:46:01.487Z,88.17
2019-04-07T03:47:01.573Z,88.17
2019-04-07T03:48:02.206Z,88.07
2019-04-07T03:49:23.372Z,87.79
2019-04-07T03:50:01.681Z,87.88
2019-04-07T03:51:01.593Z,87.79
2019-04-07T03:52:01.952Z,87.69
2019-04-07T03:53:01.737Z,87.60
2019-04-07T03:54:02.797Z,87.21
2019-04-07T03:55:22.795Z,87.31
2019-04-07T03:56:01.874Z,87.50
2019-04-07T03:57:01.611Z,87.12
2019-04-07T03:58:01.749Z,87.21
2019-04-07T03:59:01.644Z,87.50
2019-04-07T04:00:02.234Z,87.50
2019-04-07T04:01:22.691Z,87.69
2019-04-07T04:02:01.735Z,87.50
2019-04-07T04:03:02.660Z,87.50
2019-04-07T04:04:02.212Z,87.12
2019-04-07T04:05:02.905Z,87.69
2019-04-07T04:06:02.603Z,87.60
2019-04-07T04:07:31.555Z,87.40
2019-04-07T04:08:02.161Z,87.50
2019-04-07T04:09:02.062Z,87.50
2019-04-07T04:10:01.872Z,87.50
2019-04-07T04:11:02.675Z,87.60
2019-04-07T04:12:01.829Z,87.69
2019-04-07T04:13:23.112Z,87.50
2019-04-07T04:14:02.842Z,87.50
2019-04-07T04:15:01.989Z,87.50
2019-04-07T04:16:02.914Z,87.60
2019-04-07T04:17:02.075Z,87.31
2019-04-07T04:18:01.919Z,87.36
2019-04-07T04:19:22.960Z,87.84
2019-04-07T04:20:02.301Z,87.55
2019-04-07T04:21:01.960Z,88.12
2019-04-07T04:22:02.153Z,88.22
2019-04-07T04:23:01.987Z,88.12
2019-04-07T04:24:01.995Z,87.74
2019-04-07T04:25:23.222Z,88.22
2019-04-07T04:26:02.508Z,88.70
2019-04-07T04:27:02.041Z,89.26
2019-04-07T04:28:02.049Z,88.98
2019-04-07T04:29:02.611Z,89.07
2019-04-07T04:30:02.962Z,88.70
2019-04-07T04:31:23.115Z,88.98
2019-04-07T04:32:02.109Z,88.98
2019-04-07T04:33:02.269Z,89.26
2019-04-07T04:34:02.166Z,89.07
2019-04-07T04:35:03.194Z,89.26
2019-04-07T04:36:02.756Z,88.70
2019-04-07T04:37:36.125Z,88.70
2019-04-07T04:38:02.203Z,88.51
2019-04-07T04:39:02.209Z,88.60
2019-04-07T04:40:02.222Z,88.51
2019-04-07T04:41:02.834Z,88.79
2019-04-07T04:42:02.255Z,88.51
2019-04-07T04:43:23.464Z,88.12
2019-04-07T04:44:02.287Z,88.22
2019-04-07T04:45:02.574Z,87.93
2019-04-07T04:46:03.138Z,88.03
2019-04-07T04:47:02.819Z,88.22
2019-04-07T04:48:02.733Z,88.31
2019-04-07T04:49:23.426Z,87.93
2019-04-07T04:50:02.527Z,88.03
2019-04-07T04:51:03.121Z,87.93
2019-04-07T04:52:03.063Z,88.03
2019-04-07T04:53:02.412Z,88.70
2019-04-07T04:54:02.418Z,89.22
2019-04-07T04:55:24.263Z,89.03
2019-04-07T04:56:02.995Z,88.75
2019-04-07T04:57:05.435Z,88.27
2019-04-07T04:58:02.500Z,88.65
2019-04-07T04:59:02.481Z,89.22
2019-04-07T05:00:02.521Z,89.03
2019-04-07T05:01:23.518Z,89.41
2019-04-07T05:02:02.707Z,89.13
2019-04-07T05:03:02.739Z,88.84
2019-04-07T05:04:02.586Z,89.13
2019-04-07T05:05:02.685Z,89.03
2019-04-07T05:06:03.585Z,89.13
2019-04-07T05:07:24.437Z,88.93
2019-04-07T05:08:04.512Z,88.56
2019-04-07T05:09:03.391Z,88.75
2019-04-07T05:10:02.756Z,88.65
2019-04-07T05:11:03.118Z,88.65
2019-04-07T05:12:04.805Z,88.37
2019-04-07T05:13:23.682Z,89.41
2019-04-07T05:14:02.712Z,89.32
2019-04-07T05:15:02.695Z,89.03
2019-04-07T05:16:02.761Z,89.22
2019-04-07T05:17:02.730Z,89.98
2019-04-07T05:18:02.792Z,89.70
2019-04-07T05:19:23.783Z,89.79
2019-04-07T05:20:02.923Z,89.41
2019-04-07T05:21:03.125Z,88.93
2019-04-07T05:22:02.789Z,88.75
2019-04-07T05:23:03.052Z,88.84
2019-04-07T05:24:04.224Z,88.65
2019-04-07T05:25:24.933Z,89.13
2019-04-07T05:26:03.590Z,89.03
2019-04-07T05:27:03.222Z,89.03
2019-04-07T05:28:03.753Z,89.22
2019-04-07T05:29:03.336Z,89.03
2019-04-07T05:30:03.464Z,89.22
2019-04-07T05:31:24.651Z,89.13
2019-04-07T05:32:03.250Z,89.41
2019-04-07T05:33:03.499Z,89.22
2019-04-07T05:34:03.128Z,88.84
2019-04-07T05:35:03.192Z,89.13
2019-04-07T05:36:03.737Z,88.84
2019-04-07T05:37:24.267Z,89.13
2019-04-07T05:38:05.665Z,89.32
2019-04-07T05:39:03.271Z,88.75
2019-04-07T05:40:03.968Z,89.22
2019-04-07T05:41:03.310Z,90.22
2019-04-07T05:42:03.532Z,90.03
2019-04-07T05:43:24.247Z,90.51
2019-04-07T05:44:03.513Z,90.61
2019-04-07T05:45:03.152Z,90.89
2019-04-07T05:46:05.873Z,90.70
2019-04-07T05:47:03.285Z,90.51
2019-04-07T05:48:03.253Z,90.56
2019-04-07T05:49:24.412Z,90.46
2019-04-07T05:50:05.091Z,89.98
2019-04-07T05:51:03.453Z,90.27
2019-04-07T05:52:05.668Z,89.79
2019-04-07T05:53:03.248Z,89.03
2019-04-07T05:54:03.598Z,89.32
2019-04-07T05:55:24.525Z,88.65
2019-04-07T05:56:03.283Z,88.84
2019-04-07T05:57:03.343Z,88.84
2019-04-07T05:58:05.577Z,89.26
2019-04-07T05:59:03.312Z,88.89
2019-04-07T06:00:04.233Z,87.93
2019-04-07T06:01:24.607Z,87.84
2019-04-07T06:02:03.889Z,87.74
2019-04-07T06:03:06.624Z,87.70
2019-04-07T06:04:03.378Z,88.03
2019-04-07T06:05:04.104Z,88.12
2019-04-07T06:06:04.020Z,87.84
2019-04-07T06:07:28.749Z,87.55
2019-04-07T06:08:21.289Z,87.65
2019-04-07T06:09:04.004Z,88.51
2019-04-07T06:10:03.522Z,88.22
2019-04-07T06:11:04.133Z,86.98
2019-04-07T06:12:07.977Z,86.69
2019-04-07T06:13:24.760Z,86.41
2019-04-07T06:14:04.021Z,86.60
2019-04-07T06:15:04.166Z,86.12
2019-04-07T06:16:04.177Z,85.46
2019-04-07T06:17:04.840Z,85.93
2019-04-07T06:18:04.093Z,86.32
2019-04-07T06:19:24.973Z,86.51
2019-04-07T06:20:03.717Z,86.51
2019-04-07T06:21:03.916Z,86.03
2019-04-07T06:22:03.602Z,86.60
2019-04-07T06:23:03.900Z,86.69
2019-04-07T06:24:03.630Z,86.55
2019-04-07T06:25:25.107Z,86.07
2019-04-07T06:26:06.497Z,86.36
2019-04-07T06:27:04.343Z,86.55
2019-04-07T06:28:04.238Z,86.41
2019-04-07T06:29:03.713Z,86.36
2019-04-07T06:30:04.065Z,86.55
2019-04-07T06:31:26.321Z,85.97
2019-04-07T06:32:05.237Z,85.97
2019-04-07T06:33:05.502Z,85.78
2019-04-07T06:34:04.226Z,85.50
2019-04-07T06:35:03.926Z,85.60
2019-04-07T06:36:03.856Z,85.60
2019-04-07T06:37:28.823Z,85.88
2019-04-07T06:38:06.690Z,86.16
2019-04-07T06:39:03.841Z,86.36
2019-04-07T06:40:04.670Z,86.83
2019-04-07T06:41:03.879Z,86.93
2019-04-07T06:42:03.902Z,86.83
2019-04-07T06:43:24.913Z,86.36
2019-04-07T06:44:12.721Z,86.74
2019-04-07T06:45:04.087Z,86.45
2019-04-07T06:46:03.947Z,86.65
2019-04-07T06:47:04.601Z,86.93
2019-04-07T06:48:07.472Z,86.45
2019-04-07T06:49:28.336Z,86.65
2019-04-07T06:50:05.637Z,86.55
2019-04-07T06:51:04.027Z,86.26
2019-04-07T06:52:04.810Z,86.26
2019-04-07T06:53:04.425Z,85.88
2019-04-07T06:54:04.730Z,85.78
2019-04-07T06:55:27.608Z,85.21
2019-04-07T06:56:05.007Z,85.41
2019-04-07T06:57:05.976Z,85.02
2019-04-07T06:58:06.117Z,85.60
2019-04-07T06:59:04.586Z,85.31
2019-04-07T07:00:04.140Z,85.69
2019-04-07T07:01:26.476Z,85.12
2019-04-07T07:02:04.280Z,84.64
2019-04-07T07:03:04.409Z,84.64
2019-04-07T07:04:08.628Z,85.50
2019-04-07T07:05:04.230Z,84.01
2019-04-07T07:06:04.758Z,84.36
2019-04-07T07:07:25.251Z,84.30
2019-04-07T07:08:04.256Z,84.11
2019-04-07T07:09:04.410Z,83.92
2019-04-07T07:10:06.218Z,83.92
2019-04-07T07:11:07.686Z,83.83
2019-04-07T07:12:05.035Z,83.35
2019-04-07T07:13:29.218Z,83.92
2019-04-07T07:14:04.334Z,84.01
2019-04-07T07:15:04.569Z,83.92
2019-04-07T07:16:07.925Z,83.73
2019-04-07T07:17:04.376Z,83.73
2019-04-07T07:18:04.617Z,83.54
2019-04-07T07:19:27.433Z,83.16
2019-04-07T07:20:05.687Z,82.59
2019-04-07T07:21:05.015Z,82.30
2019-04-07T07:22:07.731Z,82.82
2019-04-07T07:23:04.718Z,82.43
2019-04-07T07:24:04.940Z,82.06
2019-04-07T07:25:26.602Z,81.48
2019-04-07T07:26:04.512Z,82.43
2019-04-07T07:27:07.200Z,81.58
2019-04-07T07:28:04.574Z,81.29
2019-04-07T07:29:06.463Z,81.04
2019-04-07T07:30:04.583Z,81.14
2019-04-07T07:31:26.570Z,80.76
2019-04-07T07:32:04.946Z,81.24
2019-04-07T07:33:07.311Z,80.66
2019-04-07T07:34:05.044Z,80.57
2019-04-07T07:35:05.098Z,79.71
2019-04-07T07:36:04.687Z,79.43
2019-04-07T07:37:26.816Z,78.94
2019-04-07T07:38:04.923Z,79.61
2019-04-07T07:39:08.572Z,79.04
2019-04-07T07:40:06.871Z,78.99
2019-04-07T07:41:04.842Z,78.99
2019-04-07T07:42:04.726Z,78.99
2019-04-07T07:43:27.981Z,79.17
2019-04-07T07:44:07.596Z,78.79
2019-04-07T07:45:08.126Z,78.31
2019-04-07T07:46:05.518Z,78.36
2019-04-07T07:47:04.800Z,78.26
2019-04-07T07:48:05.365Z,78.83
2019-04-07T07:49:25.901Z,78.45
2019-04-07T07:50:05.400Z,77.40
2019-04-07T07:51:07.173Z,76.54
2019-04-07T07:52:04.967Z,76.48
2019-04-07T07:53:04.891Z,76.29
2019-04-07T07:54:05.531Z,75.52
2019-04-07T07:55:26.456Z,75.62
2019-04-07T07:56:08.493Z,76.29
2019-04-07T07:57:05.005Z,75.71
2019-04-07T07:58:04.967Z,75.52
2019-04-07T07:59:06.106Z,75.81
2019-04-07T08:00:06.938Z,75.34
2019-04-07T08:01:26.063Z,75.34
2019-04-07T08:02:05.050Z,74.85
2019-04-07T08:03:05.687Z,74.76
2019-04-07T08:04:06.185Z,74.09
2019-04-07T08:05:05.318Z,73.52
2019-04-07T08:06:08.024Z,73.99
2019-04-07T08:07:26.827Z,73.65
2019-04-07T08:08:05.778Z,73.65
2019-04-07T08:09:11.961Z,73.27
2019-04-07T08:10:05.146Z,73.55
2019-04-07T08:11:05.576Z,73.46
2019-04-07T08:12:05.221Z,73.75
2019-04-07T08:13:26.226Z,73.94
2019-04-07T08:14:05.211Z,73.65
2019-04-07T08:15:07.994Z,74.41
2019-04-07T08:16:05.264Z,73.99
2019-04-07T08:17:05.473Z,73.99
2019-04-07T08:18:07.643Z,74.09
2019-04-07T08:19:29.415Z,74.04
2019-04-07T08:20:05.657Z,73.55
2019-04-07T08:21:05.535Z,74.22
2019-04-07T08:22:07.631Z,74.19
2019-04-07T08:23:05.413Z,73.99
2019-04-07T08:24:05.377Z,73.90
2019-04-07T08:25:26.412Z,74.13
2019-04-07T08:26:05.420Z,74.09
2019-04-07T08:27:06.299Z,74.28
2019-04-07T08:28:06.063Z,74.04
2019-04-07T08:29:06.731Z,73.94
2019-04-07T08:30:10.178Z,73.55
2019-04-07T08:31:26.512Z,73.75
2019-04-07T08:32:05.604Z,74.13
2019-04-07T08:33:05.537Z,73.75
2019-04-07T08:34:05.549Z,73.55
2019-04-07T08:35:05.831Z,73.46
2019-04-07T08:36:08.902Z,72.60
2019-04-07T08:37:26.589Z,72.69
2019-04-07T08:38:05.678Z,72.31
2019-04-07T08:39:06.133Z,72.50
2019-04-07T08:40:07.679Z,72.31
2019-04-07T08:41:08.745Z,72.50
2019-04-07T08:42:09.718Z,72.73
2019-04-07T08:43:27.456Z,71.97
2019-04-07T08:44:06.123Z,71.97
2019-04-07T08:45:06.306Z,71.97
2019-04-07T08:46:06.113Z,71.20
2019-04-07T08:47:06.452Z,71.01
2019-04-07T08:48:06.370Z,71.39
2019-04-07T08:49:27.530Z,70.85
2019-04-07T08:50:06.243Z,70.95
2019-04-07T08:51:05.875Z,70.09
2019-04-07T08:52:09.085Z,70.37
2019-04-07T08:53:05.877Z,69.60
2019-04-07T08:54:05.951Z,67.44
2019-04-07T08:55:28.177Z,66.67
2019-04-07T08:56:08.403Z,66.09
2019-04-07T08:57:05.899Z,67.44
2019-04-07T08:58:06.653Z,66.67
2019-04-07T08:59:08.444Z,67.72
2019-04-07T09:00:06.254Z,67.44
2019-04-07T09:01:29.634Z,68.11
2019-04-07T09:02:06.353Z,68.24
2019-04-07T09:03:11.388Z,67.34
2019-04-07T09:04:06.636Z,66.51
2019-04-07T09:05:06.590Z,66.71
2019-04-07T09:06:06.224Z,66.89
2019-04-07T09:07:27.648Z,66.51
2019-04-07T09:08:07.059Z,66.61
2019-04-07T09:09:07.837Z,66.71
2019-04-07T09:10:06.165Z,66.42
2019-04-07T09:11:06.145Z,65.55
2019-04-07T09:12:06.366Z,64.98
2019-04-07T09:13:27.684Z,65.08
2019-04-07T09:14:07.674Z,65.36
2019-04-07T09:15:09.500Z,65.08
2019-04-07T09:16:06.288Z,65.46
2019-04-07T09:17:06.223Z,65.26
2019-04-07T09:18:06.264Z,64.31
2019-04-07T09:19:27.293Z,63.57
2019-04-07T09:20:09.143Z,63.86
2019-04-07T09:21:06.317Z,62.62
2019-04-07T09:22:06.348Z,62.71
2019-04-07T09:23:06.992Z,62.26
2019-04-07T09:24:07.113Z,61.78
2019-04-07T09:25:28.254Z,61.78
2019-04-07T09:26:09.487Z,61.02
2019-04-07T09:27:06.433Z,60.15
2019-04-07T09:28:06.494Z,59.29
2019-04-07T09:29:06.525Z,59.61
2019-04-07T09:30:08.976Z,59.86
2019-04-07T09:31:28.140Z,60.08
2019-04-07T09:32:06.575Z,60.35
2019-04-07T09:33:07.092Z,60.53
2019-04-07T09:34:07.048Z,61.30
2019-04-07T09:35:07.247Z,61.69
2019-04-07T09:36:06.930Z,62.45
2019-04-07T09:37:28.216Z,61.59
2019-04-07T09:38:07.992Z,61.69
2019-04-07T09:39:06.777Z,61.59
2019-04-07T09:40:06.830Z,61.88
2019-04-07T09:41:07.235Z,61.88
2019-04-07T09:42:06.706Z,61.69
2019-04-07T09:43:30.259Z,61.78
2019-04-07T09:44:06.701Z,61.91
2019-04-07T09:45:08.987Z,60.63
2019-04-07T09:46:09.309Z,61.33
2019-04-07T09:47:06.742Z,61.88
2019-04-07T09:48:07.363Z,60.75
2019-04-07T09:49:27.799Z,60.28
2019-04-07T09:50:06.830Z,61.14
2019-04-07T09:51:07.458Z,60.47
2019-04-07T09:52:10.219Z,60.02
2019-04-07T09:53:06.885Z,60.69
2019-04-07T09:54:06.988Z,58.96
2019-04-07T09:55:27.935Z,59.09
2019-04-07T09:56:09.818Z,58.51
2019-04-07T09:57:07.390Z,58.13
2019-04-07T09:58:09.264Z,57.65
2019-04-07T09:59:07.827Z,57.52
2019-04-07T10:00:08.315Z,58.13
2019-04-07T10:01:29.042Z,57.75
2019-04-07T10:02:07.038Z,56.30
2019-04-07T10:03:11.518Z,56.88
2019-04-07T10:04:07.697Z,55.53
2019-04-07T10:05:07.082Z,55.73
2019-04-07T10:06:09.867Z,56.21
2019-04-07T10:07:28.377Z,56.33
2019-04-07T10:08:07.296Z,55.56
2019-04-07T10:09:07.210Z,55.30
2019-04-07T10:10:12.463Z,54.99
2019-04-07T10:11:07.210Z,54.50
2019-04-07T10:12:08.089Z,54.02
2019-04-07T10:13:29.651Z,52.48
2019-04-07T10:14:07.910Z,52.39
2019-04-07T10:15:07.592Z,52.32
2019-04-07T10:16:08.853Z,52.32
2019-04-07T10:17:07.558Z,51.74
2019-04-07T10:18:07.685Z,52.06
2019-04-07T10:19:28.349Z,51.67
2019-04-07T10:20:07.374Z,51.60
2019-04-07T10:21:07.434Z,50.06
2019-04-07T10:22:07.423Z,49.77
2019-04-07T10:23:07.980Z,50.06
2019-04-07T10:24:07.481Z,49.77
2019-04-07T10:25:29.274Z,48.54
2019-04-07T10:26:08.230Z,48.93
2019-04-07T10:27:08.096Z,47.67
2019-04-07T10:28:10.585Z,47.60
2019-04-07T10:29:07.549Z,47.51
2019-04-07T10:30:07.905Z,45.89
2019-04-07T10:31:29.274Z,44.15
2019-04-07T10:32:07.843Z,42.25
2019-04-07T10:33:07.777Z,41.57
2019-04-07T10:34:08.200Z,41.48
2019-04-07T10:35:08.067Z,40.70
2019-04-07T10:36:07.883Z,41.09
2019-04-07T10:37:28.833Z,40.99
2019-04-07T10:38:07.754Z,41.02
2019-04-07T10:39:08.383Z,40.24
2019-04-07T10:40:16.801Z,40.44
2019-04-07T10:41:07.788Z,40.44
2019-04-07T10:42:08.655Z,38.79
2019-04-07T10:43:28.894Z,39.36
2019-04-07T10:44:08.475Z,38.97
2019-04-07T10:45:09.005Z,40.49
2019-04-07T10:46:07.928Z,40.03
2019-04-07T10:47:07.942Z,40.80
2019-04-07T10:48:08.033Z,40.32
2019-04-07T10:49:29.565Z,40.15
2019-04-07T10:50:08.945Z,39.09
2019-04-07T10:51:08.016Z,39.86
2019-04-07T10:52:08.053Z,39.87
2019-04-07T10:53:08.233Z,38.62
2019-04-07T10:54:08.173Z,38.53
2019-04-07T10:55:29.151Z,38.14
2019-04-07T10:56:08.821Z,38.33
2019-04-07T10:57:08.168Z,38.81
2019-04-07T10:58:08.284Z,38.25
2019-04-07T10:59:08.230Z,37.10
2019-04-07T11:00:08.976Z,36.50
2019-04-07T11:01:29.265Z,36.40
2019-04-07T11:02:08.366Z,36.79
2019-04-07T11:03:08.399Z,36.80
2019-04-07T11:04:08.303Z,36.61
2019-04-07T11:05:08.510Z,36.22
2019-04-07T11:06:08.371Z,36.22
2019-04-07T11:07:29.385Z,36.42
2019-04-07T11:08:08.496Z,35.74
2019-04-07T11:09:08.827Z,36.32
2019-04-07T11:10:09.224Z,35.57
2019-04-07T11:11:08.458Z,35.37
2019-04-07T11:12:08.843Z,35.37
2019-04-07T11:13:29.923Z,35.28
2019-04-07T11:14:09.622Z,35.39
2019-04-07T11:15:09.265Z,35.18
2019-04-07T11:16:09.215Z,34.04
2019-04-07T11:17:08.605Z,33.73
2019-04-07T11:18:08.761Z,34.12
2019-04-07T11:19:29.675Z,34.00
2019-04-07T11:20:09.308Z,34.21
2019-04-07T11:21:09.535Z,33.34
2019-04-07T11:22:08.726Z,32.96
2019-04-07T11:23:09.712Z,33.36
2019-04-07T11:24:08.926Z,32.86
2019-04-07T11:25:29.823Z,32.96
2019-04-07T11:26:08.878Z,33.07
2019-04-07T11:27:09.270Z,32.78
2019-04-07T11:28:08.883Z,32.99
2019-04-07T11:29:09.512Z,32.81
2019-04-07T11:30:09.652Z,32.52
2019-04-07T11:31:30.036Z,32.31
2019-04-07T11:32:10.272Z,31.52
2019-04-07T11:33:09.489Z,31.23
2019-04-07T11:34:09.030Z,31.33
2019-04-07T11:35:09.420Z,31.62
2019-04-07T11:36:11.613Z,32.31
2019-04-07T11:37:30.861Z,32.31
2019-04-07T11:38:09.240Z,31.93
2019-04-07T11:39:10.034Z,32.23
2019-04-07T11:40:09.147Z,31.76
2019-04-07T11:41:09.189Z,31.97
2019-04-07T11:42:09.194Z,30.32
2019-04-07T11:43:30.469Z,30.52
2019-04-07T11:44:09.255Z,30.52
2019-04-07T11:45:09.350Z,30.69
2019-04-07T11:46:09.301Z,29.63
2019-04-07T11:47:09.843Z,29.63
2019-04-07T11:48:10.035Z,30.60
2019-04-07T11:49:31.222Z,30.11
2019-04-07T11:50:09.424Z,31.28
2019-04-07T11:51:09.591Z,31.49
2019-04-07T11:52:09.587Z,30.13
2019-04-07T11:53:09.493Z,29.63
2019-04-07T11:54:09.702Z,29.53
2019-04-07T11:55:31.275Z,30.21
2019-04-07T11:56:11.099Z,30.51
2019-04-07T11:57:09.831Z,30.69
2019-04-07T11:58:14.855Z,30.29
2019-04-07T11:59:10.172Z,30.57
2019-04-07T12:00:09.672Z,30.29
2019-04-07T12:01:30.721Z,30.98
2019-04-07T12:02:10.433Z,30.29
2019-04-07T12:03:10.556Z,30.51
2019-04-07T12:04:09.822Z,30.21
2019-04-07T12:05:09.878Z,30.11
2019-04-07T12:06:11.595Z,30.29
2019-04-07T12:07:30.843Z,31.09
2019-04-07T12:08:10.449Z,31.67
2019-04-07T12:09:09.857Z,30.79
2019-04-07T12:10:09.887Z,31.37
2019-04-07T12:11:13.160Z,30.20
2019-04-07T12:12:10.023Z,30.20
2019-04-07T12:13:31.388Z,30.10
2019-04-07T12:14:10.673Z,30.39
2019-04-07T12:15:10.007Z,31.15
2019-04-07T12:16:10.323Z,31.80
2019-04-07T12:17:12.426Z,31.99
2019-04-07T12:18:15.020Z,32.17
2019-04-07T12:19:31.122Z,32.94
2019-04-07T12:20:10.847Z,33.50
2019-04-07T12:21:20.057Z,33.40
2019-04-07T12:22:12.864Z,33.81
2019-04-07T12:23:10.398Z,33.25
2019-04-07T12:24:10.668Z,32.59
2019-04-07T12:25:33.459Z,32.29
2019-04-07T12:26:10.256Z,32.20
2019-04-07T12:27:11.629Z,32.31
2019-04-07T12:28:14.700Z,32.12
2019-04-07T12:29:10.768Z,32.51
2019-04-07T12:30:10.356Z,31.94
2019-04-07T12:31:31.418Z,31.26
2019-04-07T12:32:10.427Z,30.47
2019-04-07T12:33:11.453Z,30.88
2019-04-07T12:34:13.869Z,30.88
2019-04-07T12:35:10.797Z,31.36
2019-04-07T12:36:10.540Z,31.56
2019-04-07T12:37:31.797Z,31.73
2019-04-07T12:38:12.306Z,31.93
2019-04-07T12:39:10.578Z,32.20
2019-04-07T12:40:10.932Z,31.78
2019-04-07T12:41:17.312Z,32.26
2019-04-07T12:42:11.313Z,32.76
2019-04-07T12:43:31.726Z,33.05
2019-04-07T12:44:11.478Z,33.54
2019-04-07T12:45:11.212Z,33.44
2019-04-07T12:46:11.164Z,33.75
2019-04-07T12:47:11.349Z,32.97
2019-04-07T12:48:11.334Z,32.10
2019-04-07T12:49:33.358Z,31.91
2019-04-07T12:50:14.724Z,32.21
2019-04-07T12:51:12.223Z,33.76
2019-04-07T12:52:11.644Z,33.37
2019-04-07T12:53:10.900Z,31.94